createdAt,value
2022-09-10T00:00:43.594Z,2.95
2022-09-10T00:05:46.445Z,2.35
2022-09-10T00:10:52.062Z,1.92
2022-09-10T00:15:54.858Z,2.55
2022-09-10T00:20:58.804Z,0.90
2022-09-10T00:26:00.458Z,4.88
2022-09-10T00:31:03.477Z,4.93
2022-09-10T00:36:14.179Z,2.88
2022-09-10T00:41:17.949Z,2.08
2022-09-10T00:46:31.640Z,3.85
2022-09-10T00:51:35.765Z,5.97
2022-09-10T00:56:37.877Z,2.55
2022-09-10T01:01:40.535Z,4.00
2022-09-10T01:06:45.752Z,2.45
2022-09-10T01:12:13.067Z,2.03
2022-09-10T01:17:37.437Z,1.98
2022-09-10T01:23:06.475Z,5.15
2022-09-10T01:28:33.642Z,3.50
2022-09-10T01:33:43.103Z,0.85
2022-09-10T01:38:50.119Z,5.03
2022-09-10T01:43:52.120Z,3.45
2022-09-10T01:49:14.938Z,1.58
2022-09-10T01:54:37.160Z,2.72
2022-09-10T01:59:50.923Z,6.75
2022-09-10T02:04:54.684Z,2.40
2022-09-10T02:09:57.459Z,6.15
2022-09-10T02:15:01.399Z,2.00
2022-09-10T02:20:22.138Z,2.47
2022-09-10T02:25:33.342Z,6.15
2022-09-10T02:30:37.292Z,3.50
2022-09-10T02:35:39.149Z,3.67
2022-09-10T02:40:40.789Z,2.03
2022-09-10T02:45:43.913Z,5.38
2022-09-10T02:50:46.279Z,5.10
2022-09-10T02:55:48.893Z,1.75
2022-09-10T03:00:50.856Z,3.22
2022-09-10T03:05:52.682Z,4.95
2022-09-10T03:10:55.903Z,5.20
2022-09-10T03:15:58.918Z,2.97
2022-09-10T03:21:09.890Z,5.82
2022-09-10T03:26:14.454Z,2.05
2022-09-10T03:31:18.241Z,4.93
2022-09-10T03:36:22.960Z,5.22
2022-09-10T03:41:28.333Z,6.28
2022-09-10T03:46:33.316Z,3.10
2022-09-10T03:51:37.033Z,5.35
2022-09-10T03:56:39.881Z,3.78
2022-09-10T04:01:43.750Z,3.58
2022-09-10T04:06:45.541Z,5.20
2022-09-10T04:11:49.779Z,6.45
2022-09-10T04:16:52.422Z,3.97
2022-09-10T04:21:54.616Z,3.20
2022-09-10T04:26:57.823Z,2.70
2022-09-10T04:31:59.728Z,4.30
2022-09-10T04:37:06.177Z,5.10
2022-09-10T04:42:09.879Z,2.53
2022-09-10T04:47:12.396Z,2.55
2022-09-10T04:52:17.198Z,5.28
2022-09-10T04:57:19.679Z,7.70
2022-09-10T05:02:21.864Z,6.28
2022-09-10T05:07:24.142Z,3.13
2022-09-10T05:12:26.443Z,5.07
2022-09-10T05:17:28.155Z,8.57
2022-09-10T05:22:37.246Z,2.47
2022-09-10T05:27:42.003Z,4.10
2022-09-10T05:32:47.544Z,5.65
2022-09-10T05:37:50.772Z,11.82
2022-09-10T05:42:54.038Z,7.55
2022-09-10T05:47:57.271Z,6.00
2022-09-10T05:52:59.113Z,11.45
2022-09-10T05:58:03.066Z,4.63
2022-09-10T06:03:06.034Z,4.13
2022-09-10T06:08:24.149Z,3.72
2022-09-10T06:13:28.162Z,7.07
2022-09-10T06:18:32.031Z,4.10
2022-09-10T06:23:36.274Z,3.90
2022-09-10T06:28:38.469Z,1.98
2022-09-10T06:33:41.433Z,2.53
2022-09-10T06:38:45.188Z,5.65
2022-09-10T06:43:47.823Z,2.30
2022-09-10T06:49:06.202Z,1.55
2022-09-10T06:54:10.427Z,5.80
2022-09-10T06:59:14.735Z,3.90
2022-09-10T07:04:21.851Z,2.60
2022-09-10T07:09:24.162Z,0.70
2022-09-10T07:14:34.376Z,3.53
2022-09-10T07:19:39.816Z,2.72
2022-09-10T07:24:53.990Z,3.83
2022-09-10T07:30:04.941Z,1.75
2022-09-10T07:35:09.961Z,2.13
2022-09-10T07:40:13.612Z,3.83
2022-09-10T07:45:16.272Z,0.93
2022-09-10T07:50:19.345Z,3.88
2022-09-10T07:55:25.118Z,1.88
2022-09-10T08:00:28.114Z,2.67
2022-09-10T08:05:37.407Z,2.25
2022-09-10T08:10:39.182Z,0.93
2022-09-10T08:15:43.827Z,2.35
2022-09-10T08:20:46.036Z,1.33
2022-09-10T08:25:52.312Z,1.75
2022-09-10T08:31:01.949Z,2.35
2022-09-10T08:36:10.587Z,4.38
2022-09-10T08:41:21.912Z,1.92
2022-09-10T08:46:42.184Z,4.10
2022-09-10T08:51:56.876Z,2.72
2022-09-10T08:57:00.760Z,2.63
2022-09-10T09:02:37.903Z,2.60
2022-09-10T09:07:42.728Z,1.85
2022-09-10T09:13:08.559Z,5.50
2022-09-10T09:18:36.842Z,1.70
2022-09-10T09:24:13.482Z,1.10
2022-09-10T09:29:31.420Z,2.88
2022-09-10T09:34:41.769Z,1.77
2022-09-10T09:40:04.836Z,3.80
2022-09-10T09:45:28.481Z,2.40
2022-09-10T09:50:33.613Z,3.20
2022-09-10T09:55:43.166Z,2.08
2022-09-10T10:00:45.009Z,2.40
2022-09-10T10:05:48.244Z,2.30
2022-09-10T10:10:52.210Z,3.75
2022-09-10T10:15:54.236Z,1.95
2022-09-10T10:21:18.838Z,1.98
2022-09-10T10:26:24.445Z,1.45
2022-09-10T10:31:41.258Z,3.53
2022-09-10T10:37:04.339Z,1.38
2022-09-10T10:42:17.409Z,4.15
2022-09-10T10:47:25.474Z,2.55
2022-09-10T10:53:02.695Z,2.53
2022-09-10T10:58:20.351Z,1.50
2022-09-10T11:03:31.684Z,2.22
2022-09-10T11:08:42.616Z,1.70
2022-09-10T11:14:17.126Z,2.58
2022-09-10T11:19:31.312Z,2.97
2022-09-10T11:24:47.066Z,2.20
2022-09-10T11:30:02.917Z,1.92
2022-09-10T11:35:19.889Z,4.65
2022-09-10T11:40:31.189Z,2.20
2022-09-10T11:45:49.065Z,2.60
2022-09-10T11:51:28.107Z,4.32
2022-09-10T11:56:52.926Z,1.10
2022-09-10T12:02:20.777Z,1.02
2022-09-10T12:07:43.248Z,1.10
2022-09-10T12:12:49.843Z,2.10
2022-09-10T12:17:59.217Z,2.08
2022-09-10T12:23:01.431Z,2.13
2022-09-10T12:28:24.925Z,2.35
2022-09-10T12:33:35.029Z,2.78
2022-09-10T12:39:16.466Z,2.00
2022-09-10T12:44:44.805Z,0.65
2022-09-10T12:50:01.614Z,2.47
2022-09-10T12:55:49.168Z,1.10
2022-09-10T13:00:58.250Z,3.53
2022-09-10T13:06:04.347Z,2.28
2022-09-10T13:11:18.320Z,2.13
2022-09-10T13:16:41.460Z,2.67
2022-09-10T13:21:43.008Z,1.75
2022-09-10T13:26:50.571Z,5.25
2022-09-10T13:32:02.074Z,1.85
2022-09-10T13:37:20.784Z,0.75
2022-09-10T13:42:25.666Z,3.58
2022-09-10T13:47:36.537Z,3.55
2022-09-10T13:52:39.232Z,2.67
2022-09-10T13:57:44.780Z,2.78
2022-09-10T14:02:50.686Z,1.15
2022-09-10T14:07:55.988Z,2.88
2022-09-10T14:12:58.875Z,3.63
2022-09-10T14:18:01.117Z,2.45
2022-09-10T14:23:15.605Z,4.30
2022-09-10T14:28:17.241Z,6.20
2022-09-10T14:33:31.991Z,2.70
2022-09-10T14:38:39.501Z,2.22
2022-09-10T14:43:41.294Z,1.63
2022-09-10T14:49:07.985Z,2.50
2022-09-10T14:54:11.806Z,1.85
2022-09-10T14:59:32.499Z,3.33
2022-09-10T15:04:34.126Z,2.22
2022-09-10T15:09:35.866Z,2.08
2022-09-10T15:14:37.959Z,3.47
2022-09-10T15:19:39.571Z,1.10
2022-09-10T15:24:59.021Z,4.13
2022-09-10T15:30:03.156Z,2.45
2022-09-10T15:35:05.372Z,5.78
2022-09-10T15:40:07.950Z,2.25
2022-09-10T15:45:10.065Z,3.58
2022-09-10T15:50:12.700Z,1.15
2022-09-10T15:55:14.443Z,3.33
2022-09-10T16:00:17.451Z,1.88
2022-09-10T16:05:21.185Z,2.08
2022-09-10T16:10:23.288Z,2.95
2022-09-10T16:15:24.915Z,1.70
2022-09-10T16:20:26.639Z,2.67
2022-09-10T16:25:31.115Z,1.48
2022-09-10T16:30:32.694Z,2.92
2022-09-10T16:35:35.688Z,1.52
2022-09-10T16:40:37.354Z,2.17
2022-09-10T16:45:49.408Z,1.02
2022-09-10T16:50:51.183Z,2.50
2022-09-10T16:55:52.972Z,1.45
2022-09-10T17:00:54.849Z,1.98
2022-09-10T17:05:57.587Z,4.30
2022-09-10T17:10:59.236Z,3.95
2022-09-10T17:16:24.724Z,2.60
2022-09-10T17:21:28.395Z,4.82
2022-09-10T17:26:31.626Z,5.78
2022-09-10T17:31:34.163Z,6.78
2022-09-10T17:36:36.924Z,5.63
2022-09-10T17:41:39.700Z,8.65
2022-09-10T17:46:42.838Z,5.40
2022-09-10T17:51:44.778Z,7.15
2022-09-10T17:56:46.489Z,5.72
2022-09-10T18:01:48.281Z,5.07
2022-09-10T18:06:52.399Z,5.28
2022-09-10T18:11:56.455Z,8.75
2022-09-10T18:16:58.839Z,5.30
2022-09-10T18:22:01.488Z,7.22
2022-09-10T18:27:05.331Z,8.38
2022-09-10T18:32:08.596Z,4.57
2022-09-10T18:37:10.190Z,6.18
2022-09-10T18:42:12.849Z,6.50
2022-09-10T18:47:34.156Z,8.23
2022-09-10T18:52:36.057Z,5.22
2022-09-10T18:57:37.877Z,4.07
2022-09-10T19:02:39.879Z,10.50
2022-09-10T19:07:41.557Z,26.27
2022-09-10T19:12:43.312Z,29.80
2022-09-10T19:17:44.917Z,18.73
2022-09-10T19:22:46.772Z,19.75
2022-09-10T19:27:48.385Z,17.50
2022-09-10T19:32:50.147Z,7.68
2022-09-10T19:37:51.728Z,7.60
2022-09-10T19:42:53.996Z,9.50
2022-09-10T19:47:55.944Z,11.82
2022-09-10T19:52:57.585Z,5.35
2022-09-10T19:58:00.075Z,4.25
2022-09-10T20:03:01.698Z,5.20
2022-09-10T20:08:04.816Z,9.63
2022-09-10T20:13:08.068Z,3.22
2022-09-10T20:18:09.649Z,6.38
2022-09-10T20:23:11.328Z,6.95
2022-09-10T20:28:14.360Z,3.70
2022-09-10T20:33:16.659Z,4.57
2022-09-10T20:38:18.279Z,4.25
2022-09-10T20:43:20.134Z,5.40
2022-09-10T20:48:21.752Z,9.30
2022-09-10T20:53:23.560Z,2.72
2022-09-10T20:58:25.142Z,3.55
2022-09-10T21:03:30.280Z,4.65
2022-09-10T21:08:31.918Z,5.57
2022-09-10T21:13:34.263Z,3.80
2022-09-10T21:18:36.958Z,6.07
2022-09-10T21:23:43.788Z,4.40
2022-09-10T21:28:45.408Z,1.90
2022-09-10T21:33:47.120Z,5.50
2022-09-10T21:38:56.564Z,4.72
2022-09-10T21:44:00.172Z,2.75
2022-09-10T21:49:03.452Z,1.60
2022-09-10T21:54:05.627Z,3.78
2022-09-10T21:59:07.773Z,5.20
2022-09-10T22:04:11.269Z,3.67
2022-09-10T22:09:15.600Z,3.13
2022-09-10T22:14:22.646Z,2.42
2022-09-10T22:19:25.909Z,3.15
2022-09-10T22:24:27.554Z,7.07
2022-09-10T22:29:29.299Z,3.20
2022-09-10T22:34:30.888Z,3.15
2022-09-10T22:39:32.517Z,3.90
2022-09-10T22:44:34.139Z,2.28
2022-09-10T22:49:37.236Z,4.38
2022-09-10T22:54:38.876Z,7.43
2022-09-10T22:59:40.456Z,3.80
2022-09-10T23:04:42.847Z,2.72
2022-09-10T23:09:44.483Z,4.05
2022-09-10T23:14:46.120Z,4.25
2022-09-10T23:19:47.722Z,3.30
2022-09-10T23:24:49.349Z,3.47
2022-09-10T23:29:50.959Z,2.50
2022-09-10T23:34:53.377Z,4.55
2022-09-10T23:39:55.024Z,2.55
2022-09-10T23:44:57.264Z,3.13
2022-09-10T23:49:58.925Z,2.97
2022-09-10T23:55:00.520Z,2.05
